This is the latest recevied weather packets stored in our database for station/object IN3XSV-13. If no packets are shown the sender has not sent any weather packets the latest 10 day(s).
| Time | Temp. | Humidity | Pressure | Rain* | Wind** | Luminosity | Snow |
|---|---|---|---|---|---|---|---|
| 1777841933 | 15.56° C | 50% | 9956.5 hPa | 0 mm | - | - | - |
| 1777841633 | 15.56° C | 50% | 9956.6 hPa | 0 mm | - | - | - |
| 1777841333 | 16.11° C | 49% | 9956.6 hPa | 0 mm | - | - | - |
| 1777841033 | 16.11° C | 49% | 9956.6 hPa | 0 mm | - | - | - |
| 1777840733 | 16.11° C | 48% | 9956.5 hPa | 0 mm | - | - | - |
| 1777840433 | 16.11° C | 48% | 9956.6 hPa | 0 mm | - | - | - |
| 1777840133 | 16.67° C | 47% | 9956.4 hPa | 0 mm | - | - | - |
| 1777839833 | 16.67° C | 47% | 9956.5 hPa | 0 mm | - | - | - |
| 1777839533 | 17.22° C | 47% | 9956.4 hPa | 0 mm | - | - | - |
| 1777839233 | 17.22° C | 46% | 9956.5 hPa | 0 mm | - | - | - |
| 1777838933 | 17.78° C | 46% | 9956.4 hPa | 0 mm | - | - | - |
| 1777838633 | 17.78° C | 46% | 9956.4 hPa | 0 mm | - | - | - |
| 1777838333 | 17.78° C | 46% | 9956.4 hPa | 0 mm | - | - | - |
| 1777838033 | 17.78° C | 45% | 9956.4 hPa | 0 mm | - | - | - |
| 1777837733 | 18.33° C | 44% | 9956 hPa | 0 mm | - | - | - |
| 1777837433 | 18.89° C | 43% | 9956 hPa | 0 mm | - | - | - |
| 1777837133 | 18.89° C | 42% | 9956.1 hPa | 0 mm | - | - | - |
| 1777836833 | 19.44° C | 42% | 9956 hPa | 0 mm | - | - | - |
| 1777836533 | 19.44° C | 41% | 9955.9 hPa | 0 mm | - | - | - |
| 1777836233 | 19.44° C | 41% | 9956 hPa | 0 mm | - | - | - |
| 1777835933 | 19.44° C | 41% | 9955.8 hPa | 0 mm | - | - | - |
| 1777835633 | 19.44° C | 41% | 9955.8 hPa | 0 mm | - | - | - |
| 1777835333 | 20° C | 41% | 9955.7 hPa | 0 mm | - | - | - |
| 1777835033 | 20° C | 41% | 9955.8 hPa | 0 mm | - | - | - |
| 1777834733 | 20° C | 41% | 9955.7 hPa | 0 mm | - | - | - |
* Rain latest hour (hover to see other rain measurements)
** Current wind speed in m/s (hover to see current wind gust speed)